sensor_id;sensor_type;location;lat;lon;timestamp;P1;durP1;ratioP1;P2;durP2;ratioP2
3309;SDS011;1667;53.238;10.394;2023-04-24T00:01:39;2.63;;;2.43;;
3309;SDS011;1667;53.238;10.394;2023-04-24T00:06:39;3.47;;;3.27;;
3309;SDS011;1667;53.238;10.394;2023-04-24T00:11:40;3.70;;;3.07;;
3309;SDS011;1667;53.238;10.394;2023-04-24T00:16:39;3.20;;;2.40;;
3309;SDS011;1667;53.238;10.394;2023-04-24T00:21:37;3.40;;;3.10;;
3309;SDS011;1667;53.238;10.394;2023-04-24T00:26:36;3.40;;;3.10;;
3309;SDS011;1667;53.238;10.394;2023-04-24T00:31:36;4.60;;;3.40;;
3309;SDS011;1667;53.238;10.394;2023-04-24T00:36:35;3.30;;;3.07;;
3309;SDS011;1667;53.238;10.394;2023-04-24T00:41:33;3.10;;;2.80;;
3309;SDS011;1667;53.238;10.394;2023-04-24T00:46:33;3.77;;;3.47;;
3309;SDS011;1667;53.238;10.394;2023-04-24T00:51:33;5.10;;;2.50;;
3309;SDS011;1667;53.238;10.394;2023-04-24T00:56:31;2.80;;;2.60;;
3309;SDS011;1667;53.238;10.394;2023-04-24T01:01:30;2.93;;;2.70;;
3309;SDS011;1667;53.238;10.394;2023-04-24T01:06:29;2.30;;;2.10;;
3309;SDS011;1667;53.238;10.394;2023-04-24T01:11:30;3.40;;;3.10;;
3309;SDS011;1667;53.238;10.394;2023-04-24T01:16:29;2.90;;;2.70;;
3309;SDS011;1667;53.238;10.394;2023-04-24T01:21:27;3.23;;;3.03;;
3309;SDS011;1667;53.238;10.394;2023-04-24T01:26:29;2.20;;;1.87;;
3309;SDS011;1667;53.238;10.394;2023-04-24T01:31:28;3.30;;;2.63;;
3309;SDS011;1667;53.238;10.394;2023-04-24T01:36:27;2.07;;;1.97;;
3309;SDS011;1667;53.238;10.394;2023-04-24T01:41:28;2.27;;;2.17;;
3309;SDS011;1667;53.238;10.394;2023-04-24T01:46:28;1.70;;;1.60;;
3309;SDS011;1667;53.238;10.394;2023-04-24T01:51:28;2.23;;;2.13;;
3309;SDS011;1667;53.238;10.394;2023-04-24T01:56:27;1.30;;;1.23;;
3309;SDS011;1667;53.238;10.394;2023-04-24T02:01:32;1.87;;;1.77;;
3309;SDS011;1667;53.238;10.394;2023-04-24T02:06:33;1.50;;;1.40;;
3309;SDS011;1667;53.238;10.394;2023-04-24T02:11:33;1.63;;;1.57;;
3309;SDS011;1667;53.238;10.394;2023-04-24T02:16:32;1.57;;;1.47;;
3309;SDS011;1667;53.238;10.394;2023-04-24T02:21:32;1.43;;;1.30;;
3309;SDS011;1667;53.238;10.394;2023-04-24T02:26:31;1.20;;;1.20;;
3309;SDS011;1667;53.238;10.394;2023-04-24T02:31:31;3.20;;;1.90;;
3309;SDS011;1667;53.238;10.394;2023-04-24T02:36:30;1.40;;;1.30;;
3309;SDS011;1667;53.238;10.394;2023-04-24T02:41:29;1.50;;;1.40;;
3309;SDS011;1667;53.238;10.394;2023-04-24T02:46:30;1.33;;;1.23;;
3309;SDS011;1667;53.238;10.394;2023-04-24T02:51:29;1.53;;;1.43;;
3309;SDS011;1667;53.238;10.394;2023-04-24T02:56:28;1.60;;;1.50;;
3309;SDS011;1667;53.238;10.394;2023-04-24T03:01:28;1.40;;;1.30;;
3309;SDS011;1667;53.238;10.394;2023-04-24T03:06:28;1.30;;;1.20;;
3309;SDS011;1667;53.238;10.394;2023-04-24T03:11:28;3.73;;;1.40;;
3309;SDS011;1667;53.238;10.394;2023-04-24T03:16:26;1.10;;;1.10;;
3309;SDS011;1667;53.238;10.394;2023-04-24T03:21:26;1.73;;;1.40;;
3309;SDS011;1667;53.238;10.394;2023-04-24T03:26:25;1.30;;;1.20;;
3309;SDS011;1667;53.238;10.394;2023-04-24T03:31:44;1.73;;;1.10;;
3309;SDS011;1667;53.238;10.394;2023-04-24T03:36:43;1.10;;;1.00;;
3309;SDS011;1667;53.238;10.394;2023-04-24T03:41:44;1.03;;;1.03;;
3309;SDS011;1667;53.238;10.394;2023-04-24T03:46:47;1.20;;;1.13;;
3309;SDS011;1667;53.238;10.394;2023-04-24T03:51:49;1.30;;;1.20;;
3309;SDS011;1667;53.238;10.394;2023-04-24T03:56:52;1.20;;;1.20;;
3309;SDS011;1667;53.238;10.394;2023-04-24T04:01:52;1.40;;;1.30;;
3309;SDS011;1667;53.238;10.394;2023-04-24T04:06:52;1.40;;;1.30;;
3309;SDS011;1667;53.238;10.394;2023-04-24T04:11:52;1.20;;;1.10;;
3309;SDS011;1667;53.238;10.394;2023-04-24T04:16:51;1.13;;;1.07;;
3309;SDS011;1667;53.238;10.394;2023-04-24T04:21:50;4.07;;;0.90;;
3309;SDS011;1667;53.238;10.394;2023-04-24T04:27:13;2.10;;;1.03;;
3309;SDS011;1667;53.238;10.394;2023-04-24T04:32:23;1.00;;;1.00;;
3309;SDS011;1667;53.238;10.394;2023-04-24T04:37:24;0.97;;;0.97;;
3309;SDS011;1667;53.238;10.394;2023-04-24T04:42:41;2.47;;;1.30;;
3309;SDS011;1667;53.238;10.394;2023-04-24T04:47:43;0.70;;;0.70;;
3309;SDS011;1667;53.238;10.394;2023-04-24T04:52:44;0.70;;;0.70;;
3309;SDS011;1667;53.238;10.394;2023-04-24T04:57:51;0.80;;;0.80;;
3309;SDS011;1667;53.238;10.394;2023-04-24T05:02:51;1.90;;;0.93;;
3309;SDS011;1667;53.238;10.394;2023-04-24T05:07:53;0.90;;;0.90;;
3309;SDS011;1667;53.238;10.394;2023-04-24T05:12:53;0.80;;;0.80;;
3309;SDS011;1667;53.238;10.394;2023-04-24T05:17:52;0.80;;;0.80;;
3309;SDS011;1667;53.238;10.394;2023-04-24T05:22:56;1.10;;;1.00;;
3309;SDS011;1667;53.238;10.394;2023-04-24T05:27:56;0.80;;;0.80;;
3309;SDS011;1667;53.238;10.394;2023-04-24T05:32:54;1.07;;;0.97;;
3309;SDS011;1667;53.238;10.394;2023-04-24T05:37:56;0.90;;;0.90;;
3309;SDS011;1667;53.238;10.394;2023-04-24T05:42:56;1.17;;;1.07;;
3309;SDS011;1667;53.238;10.394;2023-04-24T05:47:54;0.83;;;0.83;;
3309;SDS011;1667;53.238;10.394;2023-04-24T05:52:53;1.20;;;1.10;;
3309;SDS011;1667;53.238;10.394;2023-04-24T05:57:57;1.10;;;1.10;;
3309;SDS011;1667;53.238;10.394;2023-04-24T06:02:57;1.40;;;1.30;;
3309;SDS011;1667;53.238;10.394;2023-04-24T06:07:57;0.90;;;0.90;;
3309;SDS011;1667;53.238;10.394;2023-04-24T06:13:02;1.17;;;0.90;;
3309;SDS011;1667;53.238;10.394;2023-04-24T06:18:03;1.20;;;1.10;;
3309;SDS011;1667;53.238;10.394;2023-04-24T06:23:02;0.90;;;0.90;;
3309;SDS011;1667;53.238;10.394;2023-04-24T06:28:03;1.20;;;1.10;;
3309;SDS011;1667;53.238;10.394;2023-04-24T06:33:02;0.80;;;0.80;;
3309;SDS011;1667;53.238;10.394;2023-04-24T06:38:15;1.13;;;0.90;;
3309;SDS011;1667;53.238;10.394;2023-04-24T06:43:15;1.10;;;1.00;;
3309;SDS011;1667;53.238;10.394;2023-04-24T06:48:14;1.17;;;0.87;;
3309;SDS011;1667;53.238;10.394;2023-04-24T06:53:12;2.60;;;1.13;;
3309;SDS011;1667;53.238;10.394;2023-04-24T06:58:11;0.87;;;0.87;;
3309;SDS011;1667;53.238;10.394;2023-04-24T07:03:12;0.97;;;0.90;;
3309;SDS011;1667;53.238;10.394;2023-04-24T07:08:10;1.03;;;0.93;;
3309;SDS011;1667;53.238;10.394;2023-04-24T07:13:09;0.80;;;0.80;;
3309;SDS011;1667;53.238;10.394;2023-04-24T07:18:08;0.87;;;0.87;;
3309;SDS011;1667;53.238;10.394;2023-04-24T07:23:08;1.20;;;1.10;;
3309;SDS011;1667;53.238;10.394;2023-04-24T07:28:06;5.20;;;1.07;;
3309;SDS011;1667;53.238;10.394;2023-04-24T07:33:05;0.80;;;0.80;;
3309;SDS011;1667;53.238;10.394;2023-04-24T07:38:03;1.03;;;0.80;;
3309;SDS011;1667;53.238;10.394;2023-04-24T07:43:03;1.63;;;0.80;;
3309;SDS011;1667;53.238;10.394;2023-04-24T07:48:02;1.23;;;0.97;;
3309;SDS011;1667;53.238;10.394;2023-04-24T07:53:01;0.80;;;0.80;;
3309;SDS011;1667;53.238;10.394;2023-04-24T07:58:00;0.80;;;0.80;;
3309;SDS011;1667;53.238;10.394;2023-04-24T08:03:00;0.80;;;0.80;;
3309;SDS011;1667;53.238;10.394;2023-04-24T08:07:59;1.37;;;0.83;;
3309;SDS011;1667;53.238;10.394;2023-04-24T08:12:57;0.80;;;0.80;;
3309;SDS011;1667;53.238;10.394;2023-04-24T08:17:56;0.93;;;0.93;;
3309;SDS011;1667;53.238;10.394;2023-04-24T08:22:57;0.80;;;0.80;;
3309;SDS011;1667;53.238;10.394;2023-04-24T08:27:55;1.10;;;1.00;;
3309;SDS011;1667;53.238;10.394;2023-04-24T08:32:54;1.23;;;1.20;;
3309;SDS011;1667;53.238;10.394;2023-04-24T08:37:52;1.37;;;1.27;;
3309;SDS011;1667;53.238;10.394;2023-04-24T08:42:52;2.10;;;1.33;;
3309;SDS011;1667;53.238;10.394;2023-04-24T08:47:53;1.30;;;1.20;;
3309;SDS011;1667;53.238;10.394;2023-04-24T08:52:52;1.97;;;1.20;;
3309;SDS011;1667;53.238;10.394;2023-04-24T08:57:51;1.60;;;1.50;;
3309;SDS011;1667;53.238;10.394;2023-04-24T09:02:53;1.50;;;1.40;;
3309;SDS011;1667;53.238;10.394;2023-04-24T09:07:53;2.23;;;1.90;;
3309;SDS011;1667;53.238;10.394;2023-04-24T09:12:54;1.87;;;1.77;;
3309;SDS011;1667;53.238;10.394;2023-04-24T09:17:55;3.00;;;2.80;;
3309;SDS011;1667;53.238;10.394;2023-04-24T09:22:54;3.10;;;2.90;;
3309;SDS011;1667;53.238;10.394;2023-04-24T09:27:58;3.00;;;2.80;;
3309;SDS011;1667;53.238;10.394;2023-04-24T09:38:12;2.80;;;2.47;;
3309;SDS011;1667;53.238;10.394;2023-04-24T09:43:12;3.00;;;2.80;;
3309;SDS011;1667;53.238;10.394;2023-04-24T09:48:11;2.70;;;2.50;;
3309;SDS011;1667;53.238;10.394;2023-04-24T09:53:10;3.87;;;2.67;;
3309;SDS011;1667;53.238;10.394;2023-04-24T09:58:08;4.70;;;2.40;;
3309;SDS011;1667;53.238;10.394;2023-04-24T10:03:08;4.10;;;3.03;;
3309;SDS011;1667;53.238;10.394;2023-04-24T10:08:09;3.53;;;3.23;;
3309;SDS011;1667;53.238;10.394;2023-04-24T10:13:09;2.80;;;2.50;;
3309;SDS011;1667;53.238;10.394;2023-04-24T10:18:09;3.53;;;2.80;;
3309;SDS011;1667;53.238;10.394;2023-04-24T10:23:09;3.57;;;2.80;;
3309;SDS011;1667;53.238;10.394;2023-04-24T10:28:08;7.20;;;3.20;;
3309;SDS011;1667;53.238;10.394;2023-04-24T10:33:09;2.63;;;2.13;;
3309;SDS011;1667;53.238;10.394;2023-04-24T10:38:09;3.30;;;3.00;;
3309;SDS011;1667;53.238;10.394;2023-04-24T10:43:10;4.77;;;3.80;;
3309;SDS011;1667;53.238;10.394;2023-04-24T10:48:15;5.23;;;4.63;;
3309;SDS011;1667;53.238;10.394;2023-04-24T10:53:15;3.63;;;3.33;;
3309;SDS011;1667;53.238;10.394;2023-04-24T10:58:15;3.40;;;2.67;;
3309;SDS011;1667;53.238;10.394;2023-04-24T11:03:26;4.53;;;3.33;;
3309;SDS011;1667;53.238;10.394;2023-04-24T11:08:27;3.13;;;2.93;;
3309;SDS011;1667;53.238;10.394;2023-04-24T11:13:28;3.37;;;3.07;;
3309;SDS011;1667;53.238;10.394;2023-04-24T11:19:06;4.10;;;2.90;;
3309;SDS011;1667;53.238;10.394;2023-04-24T11:24:22;4.30;;;3.23;;
3309;SDS011;1667;53.238;10.394;2023-04-24T11:29:22;5.23;;;2.13;;
3309;SDS011;1667;53.238;10.394;2023-04-24T11:34:22;2.10;;;2.00;;
3309;SDS011;1667;53.238;10.394;2023-04-24T11:39:21;2.53;;;2.20;;
3309;SDS011;1667;53.238;10.394;2023-04-24T11:44:19;2.00;;;1.90;;
3309;SDS011;1667;53.238;10.394;2023-04-24T11:49:19;2.03;;;1.93;;
3309;SDS011;1667;53.238;10.394;2023-04-24T11:54:20;2.07;;;1.83;;
3309;SDS011;1667;53.238;10.394;2023-04-24T11:59:18;2.50;;;2.30;;
3309;SDS011;1667;53.238;10.394;2023-04-24T12:04:17;4.00;;;2.00;;
3309;SDS011;1667;53.238;10.394;2023-04-24T12:09:16;3.00;;;2.70;;
3309;SDS011;1667;53.238;10.394;2023-04-24T12:14:16;2.57;;;2.37;;
3309;SDS011;1667;53.238;10.394;2023-04-24T12:19:17;4.73;;;2.53;;
3309;SDS011;1667;53.238;10.394;2023-04-24T12:24:17;1.70;;;1.60;;
3309;SDS011;1667;53.238;10.394;2023-04-24T12:29:20;3.60;;;2.90;;
3309;SDS011;1667;53.238;10.394;2023-04-24T12:34:19;2.07;;;1.97;;
3309;SDS011;1667;53.238;10.394;2023-04-24T12:39:19;3.30;;;2.77;;
3309;SDS011;1667;53.238;10.394;2023-04-24T12:44:28;1.90;;;1.80;;
3309;SDS011;1667;53.238;10.394;2023-04-24T12:49:26;1.93;;;1.53;;
3309;SDS011;1667;53.238;10.394;2023-04-24T12:54:25;2.70;;;1.93;;
3309;SDS011;1667;53.238;10.394;2023-04-24T12:59:31;2.60;;;2.43;;
3309;SDS011;1667;53.238;10.394;2023-04-24T13:04:29;2.20;;;2.00;;
3309;SDS011;1667;53.238;10.394;2023-04-24T13:09:29;1.47;;;1.37;;
3309;SDS011;1667;53.238;10.394;2023-04-24T13:14:28;2.03;;;1.80;;
3309;SDS011;1667;53.238;10.394;2023-04-24T13:19:28;3.57;;;1.67;;
3309;SDS011;1667;53.238;10.394;2023-04-24T13:24:27;1.87;;;1.50;;
3309;SDS011;1667;53.238;10.394;2023-04-24T13:29:26;1.60;;;1.50;;
3309;SDS011;1667;53.238;10.394;2023-04-24T13:34:24;1.40;;;1.30;;
3309;SDS011;1667;53.238;10.394;2023-04-24T13:39:25;1.50;;;1.40;;
3309;SDS011;1667;53.238;10.394;2023-04-24T13:44:24;1.63;;;1.30;;
3309;SDS011;1667;53.238;10.394;2023-04-24T13:49:22;1.87;;;1.00;;
3309;SDS011;1667;53.238;10.394;2023-04-24T13:54:22;1.17;;;1.13;;
3309;SDS011;1667;53.238;10.394;2023-04-24T13:59:24;1.30;;;1.20;;
3309;SDS011;1667;53.238;10.394;2023-04-24T14:04:22;1.30;;;1.20;;
3309;SDS011;1667;53.238;10.394;2023-04-24T14:09:21;1.47;;;1.37;;
3309;SDS011;1667;53.238;10.394;2023-04-24T14:14:20;1.23;;;1.13;;
3309;SDS011;1667;53.238;10.394;2023-04-24T14:19:20;1.37;;;1.27;;
3309;SDS011;1667;53.238;10.394;2023-04-24T14:24:18;1.47;;;1.30;;
3309;SDS011;1667;53.238;10.394;2023-04-24T14:29:17;1.07;;;1.07;;
3309;SDS011;1667;53.238;10.394;2023-04-24T14:34:16;1.50;;;1.40;;
3309;SDS011;1667;53.238;10.394;2023-04-24T14:39:16;1.50;;;1.40;;
3309;SDS011;1667;53.238;10.394;2023-04-24T14:44:14;1.10;;;1.10;;
3309;SDS011;1667;53.238;10.394;2023-04-24T14:49:13;1.00;;;1.00;;
3309;SDS011;1667;53.238;10.394;2023-04-24T14:54:11;1.00;;;0.90;;
3309;SDS011;1667;53.238;10.394;2023-04-24T14:59:12;0.70;;;0.70;;
3309;SDS011;1667;53.238;10.394;2023-04-24T15:04:11;0.70;;;0.70;;
3309;SDS011;1667;53.238;10.394;2023-04-24T15:09:10;0.60;;;0.60;;
3309;SDS011;1667;53.238;10.394;2023-04-24T15:14:08;0.70;;;0.70;;
3309;SDS011;1667;53.238;10.394;2023-04-24T15:19:09;0.70;;;0.70;;
3309;SDS011;1667;53.238;10.394;2023-04-24T15:24:07;0.90;;;0.90;;
3309;SDS011;1667;53.238;10.394;2023-04-24T15:29:06;0.80;;;0.80;;
3309;SDS011;1667;53.238;10.394;2023-04-24T15:34:04;0.90;;;0.90;;
3309;SDS011;1667;53.238;10.394;2023-04-24T15:39:04;0.80;;;0.80;;
3309;SDS011;1667;53.238;10.394;2023-04-24T15:44:05;0.90;;;0.90;;
3309;SDS011;1667;53.238;10.394;2023-04-24T15:49:03;5.93;;;0.70;;
3309;SDS011;1667;53.238;10.394;2023-04-24T15:54:03;1.80;;;1.67;;
3309;SDS011;1667;53.238;10.394;2023-04-24T15:59:02;0.87;;;0.87;;
3309;SDS011;1667;53.238;10.394;2023-04-24T16:04:01;2.60;;;2.10;;
3309;SDS011;1667;53.238;10.394;2023-04-24T16:09:00;1.80;;;1.70;;
3309;SDS011;1667;53.238;10.394;2023-04-24T16:14:00;3.00;;;2.00;;
3309;SDS011;1667;53.238;10.394;2023-04-24T16:18:59;1.83;;;1.73;;
3309;SDS011;1667;53.238;10.394;2023-04-24T16:23:57;3.63;;;1.37;;
3309;SDS011;1667;53.238;10.394;2023-04-24T16:28:55;0.93;;;0.83;;
3309;SDS011;1667;53.238;10.394;2023-04-24T16:33:55;3.87;;;1.30;;
3309;SDS011;1667;53.238;10.394;2023-04-24T16:38:54;1.20;;;1.10;;
3309;SDS011;1667;53.238;10.394;2023-04-24T16:43:53;1.23;;;1.13;;
3309;SDS011;1667;53.238;10.394;2023-04-24T16:48:52;1.83;;;1.27;;
3309;SDS011;1667;53.238;10.394;2023-04-24T16:53:52;2.00;;;1.50;;
3309;SDS011;1667;53.238;10.394;2023-04-24T16:58:50;1.20;;;1.10;;
3309;SDS011;1667;53.238;10.394;2023-04-24T17:03:49;1.47;;;1.37;;
3309;SDS011;1667;53.238;10.394;2023-04-24T17:08:48;2.23;;;1.50;;
3309;SDS011;1667;53.238;10.394;2023-04-24T17:13:48;1.57;;;1.37;;
3309;SDS011;1667;53.238;10.394;2023-04-24T17:18:46;2.27;;;2.07;;
3309;SDS011;1667;53.238;10.394;2023-04-24T17:23:45;2.80;;;2.10;;
3309;SDS011;1667;53.238;10.394;2023-04-24T17:28:43;3.20;;;2.37;;
3309;SDS011;1667;53.238;10.394;2023-04-24T17:33:43;4.33;;;2.00;;
3309;SDS011;1667;53.238;10.394;2023-04-24T17:38:42;2.40;;;2.20;;
3309;SDS011;1667;53.238;10.394;2023-04-24T17:43:41;6.87;;;1.80;;
3309;SDS011;1667;53.238;10.394;2023-04-24T17:48:41;4.27;;;2.27;;
3309;SDS011;1667;53.238;10.394;2023-04-24T17:53:41;2.90;;;2.27;;
3309;SDS011;1667;53.238;10.394;2023-04-24T17:58:39;3.20;;;2.40;;
3309;SDS011;1667;53.238;10.394;2023-04-24T18:03:38;1.80;;;1.70;;
3309;SDS011;1667;53.238;10.394;2023-04-24T18:08:37;3.60;;;2.40;;
3309;SDS011;1667;53.238;10.394;2023-04-24T18:13:36;3.67;;;2.73;;
3309;SDS011;1667;53.238;10.394;2023-04-24T18:18:36;4.73;;;3.30;;
3309;SDS011;1667;53.238;10.394;2023-04-24T18:23:35;5.23;;;3.60;;
3309;SDS011;1667;53.238;10.394;2023-04-24T18:28:33;6.10;;;2.87;;
3309;SDS011;1667;53.238;10.394;2023-04-24T18:33:33;5.70;;;2.97;;
3309;SDS011;1667;53.238;10.394;2023-04-24T18:38:32;2.80;;;2.60;;
3309;SDS011;1667;53.238;10.394;2023-04-24T18:43:31;4.20;;;3.10;;
3309;SDS011;1667;53.238;10.394;2023-04-24T18:48:30;2.97;;;2.70;;
3309;SDS011;1667;53.238;10.394;2023-04-24T18:53:30;3.53;;;3.23;;
3309;SDS011;1667;53.238;10.394;2023-04-24T18:58:28;2.90;;;2.60;;
3309;SDS011;1667;53.238;10.394;2023-04-24T19:03:27;2.73;;;2.10;;
3309;SDS011;1667;53.238;10.394;2023-04-24T19:08:28;2.10;;;1.83;;
3309;SDS011;1667;53.238;10.394;2023-04-24T19:13:27;2.60;;;2.40;;
3309;SDS011;1667;53.238;10.394;2023-04-24T19:18:26;1.90;;;1.70;;
3309;SDS011;1667;53.238;10.394;2023-04-24T19:23:25;1.80;;;1.70;;
3309;SDS011;1667;53.238;10.394;2023-04-24T19:28:24;5.17;;;1.87;;
3309;SDS011;1667;53.238;10.394;2023-04-24T19:33:23;4.00;;;2.23;;
3309;SDS011;1667;53.238;10.394;2023-04-24T19:38:21;1.83;;;1.73;;
3309;SDS011;1667;53.238;10.394;2023-04-24T19:43:20;1.90;;;1.80;;
3309;SDS011;1667;53.238;10.394;2023-04-24T19:48:20;6.40;;;1.80;;
3309;SDS011;1667;53.238;10.394;2023-04-24T19:53:19;1.80;;;1.70;;
3309;SDS011;1667;53.238;10.394;2023-04-24T19:58:17;3.83;;;1.57;;
3309;SDS011;1667;53.238;10.394;2023-04-24T20:03:16;2.40;;;1.67;;
3309;SDS011;1667;53.238;10.394;2023-04-24T20:08:30;10.10;;;2.20;;
3309;SDS011;1667;53.238;10.394;2023-04-24T20:13:29;5.90;;;2.27;;
3309;SDS011;1667;53.238;10.394;2023-04-24T20:18:28;3.33;;;1.70;;
3309;SDS011;1667;53.238;10.394;2023-04-24T20:23:27;3.67;;;3.00;;
3309;SDS011;1667;53.238;10.394;2023-04-24T20:28:27;8.33;;;2.30;;
3309;SDS011;1667;53.238;10.394;2023-04-24T20:33:25;6.23;;;2.07;;
3309;SDS011;1667;53.238;10.394;2023-04-24T20:38:26;6.03;;;2.00;;
3309;SDS011;1667;53.238;10.394;2023-04-24T20:43:24;1.63;;;1.53;;
3309;SDS011;1667;53.238;10.394;2023-04-24T20:48:25;2.90;;;1.90;;
3309;SDS011;1667;53.238;10.394;2023-04-24T20:53:23;2.10;;;1.50;;
3309;SDS011;1667;53.238;10.394;2023-04-24T20:58:22;4.30;;;2.07;;
3309;SDS011;1667;53.238;10.394;2023-04-24T21:03:22;4.13;;;2.00;;
3309;SDS011;1667;53.238;10.394;2023-04-24T21:08:20;3.83;;;2.13;;
3309;SDS011;1667;53.238;10.394;2023-04-24T21:13:19;2.73;;;1.67;;
3309;SDS011;1667;53.238;10.394;2023-04-24T21:18:17;2.17;;;1.90;;
3309;SDS011;1667;53.238;10.394;2023-04-24T21:23:17;9.87;;;1.80;;
3309;SDS011;1667;53.238;10.394;2023-04-24T21:28:16;3.60;;;2.00;;
3309;SDS011;1667;53.238;10.394;2023-04-24T21:33:14;3.50;;;1.80;;
3309;SDS011;1667;53.238;10.394;2023-04-24T21:38:13;3.53;;;1.70;;
3309;SDS011;1667;53.238;10.394;2023-04-24T21:43:16;3.53;;;1.60;;
3309;SDS011;1667;53.238;10.394;2023-04-24T21:48:29;2.60;;;2.07;;
3309;SDS011;1667;53.238;10.394;2023-04-24T21:53:28;5.17;;;2.10;;
3309;SDS011;1667;53.238;10.394;2023-04-24T21:58:27;4.60;;;2.10;;
3309;SDS011;1667;53.238;10.394;2023-04-24T22:03:26;2.57;;;1.93;;
3309;SDS011;1667;53.238;10.394;2023-04-24T22:08:25;5.37;;;1.97;;
3309;SDS011;1667;53.238;10.394;2023-04-24T22:13:24;3.70;;;2.20;;
3309;SDS011;1667;53.238;10.394;2023-04-24T22:18:24;2.83;;;1.93;;
3309;SDS011;1667;53.238;10.394;2023-04-24T22:23:39;4.03;;;1.80;;
3309;SDS011;1667;53.238;10.394;2023-04-24T22:28:38;5.90;;;2.57;;
3309;SDS011;1667;53.238;10.394;2023-04-24T22:33:38;2.60;;;1.63;;
3309;SDS011;1667;53.238;10.394;2023-04-24T22:38:36;2.10;;;1.80;;
3309;SDS011;1667;53.238;10.394;2023-04-24T22:43:35;4.03;;;2.00;;
3309;SDS011;1667;53.238;10.394;2023-04-24T22:48:33;2.87;;;1.80;;
3309;SDS011;1667;53.238;10.394;2023-04-24T22:53:33;1.83;;;1.60;;
3309;SDS011;1667;53.238;10.394;2023-04-24T22:58:32;5.80;;;1.93;;
3309;SDS011;1667;53.238;10.394;2023-04-24T23:03:31;2.60;;;2.10;;
3309;SDS011;1667;53.238;10.394;2023-04-24T23:08:31;3.37;;;2.03;;
3309;SDS011;1667;53.238;10.394;2023-04-24T23:13:31;2.80;;;1.50;;
3309;SDS011;1667;53.238;10.394;2023-04-24T23:18:29;4.47;;;2.20;;
3309;SDS011;1667;53.238;10.394;2023-04-24T23:23:28;3.73;;;1.90;;
3309;SDS011;1667;53.238;10.394;2023-04-24T23:28:26;4.30;;;2.23;;
3309;SDS011;1667;53.238;10.394;2023-04-24T23:33:26;4.70;;;2.37;;
3309;SDS011;1667;53.238;10.394;2023-04-24T23:38:25;3.40;;;2.23;;
3309;SDS011;1667;53.238;10.394;2023-04-24T23:43:38;8.10;;;2.80;;
3309;SDS011;1667;53.238;10.394;2023-04-24T23:48:38;3.07;;;2.60;;
3309;SDS011;1667;53.238;10.394;2023-04-24T23:53:37;2.73;;;2.53;;
3309;SDS011;1667;53.238;10.394;2023-04-24T23:58:35;3.20;;;2.97;;
